createdAt,value
2018-06-18T00:00:40.331Z,15.20
2018-06-18T00:01:43.828Z,15.20
2018-06-18T00:02:48.117Z,15.20
2018-06-18T00:03:52.041Z,15.20
2018-06-18T00:04:55.522Z,15.20
2018-06-18T00:05:58.993Z,15.10
2018-06-18T00:07:02.582Z,15.20
2018-06-18T00:08:06.152Z,15.10
2018-06-18T00:09:12.135Z,15.20
2018-06-18T00:10:15.619Z,15.20
2018-06-18T00:11:19.173Z,15.20
2018-06-18T00:12:22.677Z,15.20
2018-06-18T00:13:26.165Z,15.20
2018-06-18T00:14:29.670Z,15.20
2018-06-18T00:15:33.243Z,15.20
2018-06-18T00:16:36.954Z,15.20
2018-06-18T00:17:40.452Z,15.20
2018-06-18T00:18:45.561Z,15.20
2018-06-18T00:19:49.060Z,15.20
2018-06-18T00:20:52.511Z,15.20
2018-06-18T00:21:56.012Z,15.20
2018-06-18T00:22:59.612Z,15.20
2018-06-18T00:24:03.575Z,15.20
2018-06-18T00:25:07.112Z,15.30
2018-06-18T00:26:10.644Z,15.30
2018-06-18T00:27:20.752Z,15.30
2018-06-18T00:28:24.372Z,15.30
2018-06-18T00:29:28.061Z,15.30
2018-06-18T00:30:31.644Z,15.30
2018-06-18T00:31:35.222Z,15.30
2018-06-18T00:32:40.012Z,15.30
2018-06-18T00:33:44.018Z,15.30
2018-06-18T00:34:48.326Z,15.30
2018-06-18T00:35:52.120Z,15.30
2018-06-18T00:36:55.643Z,15.30
2018-06-18T00:37:59.350Z,15.30
2018-06-18T00:39:03.277Z,15.30
2018-06-18T00:40:06.904Z,15.30
2018-06-18T00:41:10.878Z,15.30
2018-06-18T00:42:15.056Z,15.20
2018-06-18T00:43:19.065Z,15.20
2018-06-18T00:44:23.523Z,15.20
2018-06-18T00:45:27.053Z,15.20
2018-06-18T00:46:30.946Z,15.20
2018-06-18T00:47:34.425Z,15.20
2018-06-18T00:48:38.042Z,15.20
2018-06-18T00:49:41.557Z,15.20
2018-06-18T00:50:45.361Z,15.20
2018-06-18T00:52:52.465Z,15.10
2018-06-18T00:54:59.106Z,15.10
2018-06-18T00:56:12.011Z,15.10
2018-06-18T00:57:16.198Z,15.10
2018-06-18T00:58:19.703Z,15.10
2018-06-18T00:59:23.229Z,15.10
2018-06-18T01:00:26.827Z,15.10
2018-06-18T01:01:30.493Z,15.10
2018-06-18T01:02:34.015Z,15.10
2018-06-18T01:03:37.777Z,15.10
2018-06-18T01:04:41.299Z,15.10
2018-06-18T01:05:44.786Z,15.10
2018-06-18T01:06:48.279Z,15.10
2018-06-18T01:07:51.814Z,15.00
2018-06-18T01:08:55.390Z,15.00
2018-06-18T01:09:58.916Z,14.90
2018-06-18T01:24:13.003Z,14.90
2018-06-18T01:25:16.471Z,14.70
2018-06-18T01:26:21.648Z,14.70
2018-06-18T01:27:25.643Z,14.70
2018-06-18T01:28:29.839Z,14.70
2018-06-18T01:29:33.390Z,14.70
2018-06-18T01:30:37.221Z,14.80
2018-06-18T01:31:41.528Z,14.80
2018-06-18T01:32:45.893Z,14.80
2018-06-18T01:33:50.665Z,14.80
2018-06-18T01:34:54.526Z,14.80
2018-06-18T01:35:58.446Z,14.80
2018-06-18T01:37:03.538Z,14.80
2018-06-18T01:38:09.001Z,14.80
2018-06-18T01:39:14.310Z,14.80
2018-06-18T01:40:17.858Z,14.80
2018-06-18T01:41:21.956Z,14.80
2018-06-18T01:42:25.605Z,14.80
2018-06-18T01:43:31.742Z,14.80
2018-06-18T01:44:35.972Z,14.90
2018-06-18T01:45:40.549Z,14.80
2018-06-18T01:46:44.560Z,14.80
2018-06-18T01:47:48.736Z,14.90
2018-06-18T01:48:52.242Z,14.90
2018-06-18T01:50:58.999Z,14.80
2018-06-18T01:52:03.026Z,14.90
2018-06-18T01:53:07.037Z,14.90
2018-06-18T01:54:10.589Z,15.00
2018-06-18T01:55:14.317Z,15.00
2018-06-18T01:56:18.303Z,15.00
2018-06-18T01:57:21.752Z,15.00
2018-06-18T01:58:25.256Z,14.90
2018-06-18T01:59:28.800Z,14.90
2018-06-18T02:00:32.428Z,14.90
2018-06-18T02:01:36.112Z,14.90
2018-06-18T02:02:39.592Z,14.90
2018-06-18T02:03:43.521Z,14.90
2018-06-18T02:04:48.243Z,14.90
2018-06-18T02:05:52.584Z,14.90
2018-06-18T02:06:58.394Z,14.80
2018-06-18T02:08:03.836Z,14.80
2018-06-18T02:09:09.579Z,14.90
2018-06-18T02:10:14.333Z,14.90
2018-06-18T02:11:18.062Z,14.90
2018-06-18T02:12:21.542Z,14.90
2018-06-18T02:13:25.051Z,14.80
2018-06-18T02:14:28.968Z,14.80
2018-06-18T02:15:34.097Z,14.80
2018-06-18T02:16:38.010Z,14.80
2018-06-18T02:17:42.870Z,14.80
2018-06-18T02:18:47.026Z,14.80
2018-06-18T02:19:51.012Z,14.80
2018-06-18T02:20:55.438Z,14.80
2018-06-18T02:22:00.579Z,14.80
2018-06-18T02:23:04.575Z,14.80
2018-06-18T02:24:08.628Z,14.80
2018-06-18T02:25:12.902Z,14.80
2018-06-18T02:26:16.861Z,14.80
2018-06-18T02:27:20.919Z,14.80
2018-06-18T02:28:30.258Z,14.80
2018-06-18T02:29:39.583Z,14.80
2018-06-18T02:30:48.947Z,14.80
2018-06-18T02:31:58.100Z,14.80
2018-06-18T02:33:07.384Z,14.80
2018-06-18T02:34:16.618Z,14.80
2018-06-18T02:35:25.835Z,14.80
2018-06-18T02:36:36.868Z,14.80
2018-06-18T02:37:45.997Z,14.70
2018-06-18T02:38:56.468Z,14.70
2018-06-18T02:40:05.547Z,14.70
2018-06-18T02:41:09.524Z,14.80
2018-06-18T02:42:14.327Z,14.70
2018-06-18T02:43:19.516Z,14.80
2018-06-18T02:44:23.426Z,14.70
2018-06-18T02:45:27.156Z,14.70
2018-06-18T02:46:31.457Z,14.70
2018-06-18T02:47:35.256Z,14.80
2018-06-18T02:48:39.325Z,14.80
2018-06-18T02:49:44.074Z,14.80
2018-06-18T02:50:48.504Z,14.80
2018-06-18T02:51:52.409Z,14.80
2018-06-18T02:52:56.230Z,14.80
2018-06-18T02:53:59.880Z,14.80
2018-06-18T02:55:03.832Z,14.90
2018-06-18T02:56:08.975Z,14.80
2018-06-18T02:57:15.357Z,14.80
2018-06-18T02:58:19.076Z,14.80
2018-06-18T02:59:23.188Z,14.80
2018-06-18T03:00:26.943Z,14.80
2018-06-18T03:01:31.054Z,14.80
2018-06-18T03:02:35.123Z,14.80
2018-06-18T03:03:39.566Z,14.70
2018-06-18T03:04:43.551Z,14.80
2018-06-18T03:05:48.030Z,14.80
2018-06-18T03:06:52.230Z,14.80
2018-06-18T03:07:57.126Z,14.80
2018-06-18T03:09:01.567Z,14.80
2018-06-18T03:10:05.751Z,14.80
2018-06-18T03:11:09.651Z,14.90
2018-06-18T03:12:14.490Z,14.90
2018-06-18T03:13:18.414Z,14.90
2018-06-18T03:14:22.581Z,14.90
2018-06-18T03:15:26.617Z,14.90
2018-06-18T03:16:30.341Z,14.90
2018-06-18T03:17:34.039Z,14.90
2018-06-18T03:18:43.284Z,15.00
2018-06-18T03:19:52.322Z,15.00
2018-06-18T03:21:01.331Z,14.90
2018-06-18T03:22:10.779Z,15.00
2018-06-18T03:23:20.386Z,15.00
2018-06-18T03:24:30.130Z,15.00
2018-06-18T03:25:39.236Z,15.00
2018-06-18T03:27:51.131Z,15.00
2018-06-18T03:29:00.391Z,15.00
2018-06-18T03:30:05.008Z,15.10
2018-06-18T03:31:10.218Z,15.10
2018-06-18T03:32:16.853Z,15.10
2018-06-18T03:33:20.343Z,15.10
2018-06-18T03:34:23.795Z,15.10
2018-06-18T03:35:27.344Z,15.10
2018-06-18T03:36:30.793Z,15.10
2018-06-18T03:37:34.280Z,15.10
2018-06-18T03:38:37.804Z,15.10
2018-06-18T03:39:41.306Z,15.10
2018-06-18T03:40:44.797Z,15.10
2018-06-18T03:41:50.237Z,15.10
2018-06-18T03:42:53.718Z,15.10
2018-06-18T03:44:02.020Z,15.10
2018-06-18T03:45:09.937Z,15.20
2018-06-18T03:46:13.946Z,15.20
2018-06-18T03:47:21.606Z,15.20
2018-06-18T03:48:25.091Z,15.20
2018-06-18T03:49:28.908Z,15.30
2018-06-18T03:50:32.494Z,15.30
2018-06-18T03:51:35.994Z,15.30
2018-06-18T03:53:42.585Z,15.40
2018-06-18T03:54:46.430Z,15.30
2018-06-18T03:55:55.132Z,15.30
2018-06-18T03:56:59.310Z,15.40
2018-06-18T03:58:07.947Z,15.40
2018-06-18T03:59:12.068Z,15.40
2018-06-18T04:00:15.519Z,15.40
2018-06-18T04:03:02.965Z,15.40
2018-06-18T04:04:13.486Z,15.40
2018-06-18T04:05:22.833Z,15.40
2018-06-18T04:06:31.661Z,15.50
2018-06-18T04:07:43.586Z,15.50
2018-06-18T04:08:51.264Z,15.50
2018-06-18T04:10:00.181Z,15.50
2018-06-18T04:11:09.124Z,15.50
2018-06-18T04:13:16.102Z,15.60
2018-06-18T04:14:19.576Z,15.50
2018-06-18T04:15:23.542Z,15.50
2018-06-18T04:16:27.846Z,15.60
2018-06-18T04:17:31.365Z,15.60
2018-06-18T04:18:39.057Z,15.60
2018-06-18T04:19:42.580Z,15.60
2018-06-18T04:20:48.290Z,15.60
2018-06-18T04:21:51.768Z,15.60
2018-06-18T04:22:55.387Z,15.60
2018-06-18T04:24:00.340Z,15.60
2018-06-18T04:25:03.918Z,15.60
2018-06-18T04:26:07.401Z,15.60
2018-06-18T04:27:10.998Z,15.60
2018-06-18T04:28:14.541Z,15.70
2018-06-18T04:29:20.946Z,15.70
2018-06-18T04:30:25.198Z,15.60
2018-06-18T04:31:29.173Z,15.70
2018-06-18T04:32:33.246Z,15.70
2018-06-18T04:33:39.190Z,15.70
2018-06-18T04:34:49.837Z,15.70
2018-06-18T04:35:53.817Z,15.80
2018-06-18T04:37:01.301Z,15.80
2018-06-18T04:38:04.860Z,15.90
2018-06-18T04:39:10.013Z,15.90
2018-06-18T04:40:13.887Z,15.90
2018-06-18T04:41:18.478Z,15.90
2018-06-18T04:42:27.306Z,15.90
2018-06-18T04:43:36.022Z,16.00
2018-06-18T04:44:45.661Z,16.10
2018-06-18T04:45:54.936Z,16.10
2018-06-18T04:47:03.953Z,16.10
2018-06-18T04:48:12.873Z,16.20
2018-06-18T04:49:21.573Z,16.20
2018-06-18T04:50:30.472Z,16.20
2018-06-18T04:51:34.027Z,16.10
2018-06-18T04:52:38.849Z,16.00
2018-06-18T04:53:42.350Z,16.00
2018-06-18T04:54:45.880Z,16.00
2018-06-18T04:55:51.050Z,15.90
2018-06-18T04:56:54.647Z,15.90
2018-06-18T04:57:58.783Z,15.90
2018-06-18T04:59:02.237Z,16.00
2018-06-18T05:00:19.460Z,16.00
2018-06-18T05:01:26.713Z,16.00
2018-06-18T05:02:30.283Z,16.10
2018-06-18T05:03:33.972Z,16.10
2018-06-18T05:04:38.270Z,16.10
2018-06-18T05:05:41.842Z,16.10
2018-06-18T05:06:45.329Z,16.10
2018-06-18T05:08:00.637Z,16.10
2018-06-18T05:09:15.676Z,16.20
2018-06-18T05:11:28.630Z,16.20
2018-06-18T05:12:32.085Z,16.30
2018-06-18T05:13:35.679Z,16.30
2018-06-18T05:14:39.420Z,16.40
2018-06-18T05:15:44.064Z,16.50
2018-06-18T05:16:48.367Z,16.60
2018-06-18T05:17:52.404Z,16.70
2018-06-18T05:18:56.142Z,16.70
2018-06-18T05:20:11.718Z,16.80
2018-06-18T05:21:15.761Z,16.90
2018-06-18T05:22:21.120Z,16.90
2018-06-18T05:23:24.610Z,16.90
2018-06-18T05:24:29.087Z,17.00
2018-06-18T05:25:32.600Z,16.90
2018-06-18T05:26:39.096Z,17.00
2018-06-18T05:27:42.590Z,17.00
2018-06-18T05:28:46.107Z,16.90
2018-06-18T05:29:50.063Z,16.90
2018-06-18T05:30:53.835Z,16.90
2018-06-18T05:31:57.361Z,17.00
2018-06-18T05:33:00.894Z,16.90
2018-06-18T05:34:04.449Z,16.90
2018-06-18T05:35:09.436Z,16.90
2018-06-18T05:36:13.226Z,16.80
2018-06-18T05:37:20.037Z,16.80
2018-06-18T05:38:36.070Z,16.90
2018-06-18T05:39:39.646Z,16.90
2018-06-18T05:40:43.204Z,16.90
2018-06-18T05:41:46.718Z,17.00
2018-06-18T05:42:50.177Z,17.00
2018-06-18T05:43:53.795Z,16.90
2018-06-18T05:44:57.337Z,16.90
2018-06-18T05:46:02.988Z,17.00
2018-06-18T05:47:06.504Z,17.10
2018-06-18T05:48:10.231Z,17.10
2018-06-18T05:49:14.356Z,17.10
2018-06-18T05:50:17.937Z,17.10
2018-06-18T05:51:21.425Z,17.10
2018-06-18T05:52:24.976Z,17.20
2018-06-18T05:53:28.503Z,17.30
2018-06-18T05:54:31.993Z,17.30
2018-06-18T05:55:35.457Z,17.40
2018-06-18T05:56:38.972Z,17.30
2018-06-18T05:57:43.147Z,17.30
2018-06-18T05:58:46.727Z,17.30
2018-06-18T05:59:50.665Z,17.30
2018-06-18T06:00:54.205Z,17.30
2018-06-18T06:01:57.736Z,17.30
2018-06-18T06:03:01.271Z,17.30
2018-06-18T06:04:04.916Z,17.30
2018-06-18T06:05:08.596Z,17.30
2018-06-18T06:06:12.309Z,17.30
2018-06-18T06:07:15.886Z,17.40
2018-06-18T06:08:20.055Z,17.40
2018-06-18T06:09:24.479Z,17.50
2018-06-18T06:10:28.072Z,17.50
2018-06-18T06:11:31.577Z,17.50
2018-06-18T06:12:35.072Z,17.40
2018-06-18T06:13:38.548Z,17.50
2018-06-18T06:14:42.158Z,17.60
2018-06-18T06:15:45.714Z,17.50
2018-06-18T06:16:49.203Z,17.50
2018-06-18T06:17:52.735Z,17.50
2018-06-18T06:18:56.222Z,17.50
2018-06-18T06:20:00.484Z,17.40
2018-06-18T06:21:07.426Z,17.50
2018-06-18T06:22:11.744Z,17.40
2018-06-18T06:23:15.328Z,17.30
2018-06-18T06:24:18.979Z,17.30
2018-06-18T06:25:22.574Z,17.40
2018-06-18T06:26:26.122Z,17.20
2018-06-18T06:27:29.738Z,17.30
2018-06-18T06:28:33.349Z,17.30
2018-06-18T06:29:37.197Z,17.20
2018-06-18T06:30:40.788Z,17.20
2018-06-18T06:31:44.291Z,17.30
2018-06-18T06:32:48.228Z,17.40
2018-06-18T06:33:52.189Z,17.50
2018-06-18T06:34:58.719Z,17.50
2018-06-18T06:36:03.081Z,17.60
2018-06-18T06:37:06.680Z,17.70
2018-06-18T06:38:11.098Z,17.80
2018-06-18T06:39:14.692Z,17.90
2018-06-18T06:40:18.236Z,18.00
2018-06-18T06:41:21.903Z,18.10
2018-06-18T06:42:25.462Z,18.10
2018-06-18T06:43:29.009Z,18.30
2018-06-18T06:44:32.546Z,18.40
2018-06-18T06:45:37.130Z,18.50
2018-06-18T06:46:40.642Z,18.60
2018-06-18T06:47:44.327Z,18.70
2018-06-18T06:48:47.949Z,18.70
2018-06-18T06:49:52.222Z,18.80
2018-06-18T06:50:55.928Z,18.90
2018-06-18T06:51:59.500Z,18.90
2018-06-18T06:53:03.048Z,18.70
2018-06-18T06:54:06.696Z,18.70
2018-06-18T06:55:10.361Z,18.70
2018-06-18T06:56:14.672Z,18.80
2018-06-18T06:57:18.245Z,18.70
2018-06-18T06:58:21.779Z,18.60
2018-06-18T06:59:25.422Z,18.60
2018-06-18T07:00:28.938Z,18.60
2018-06-18T07:01:32.575Z,18.60
2018-06-18T07:02:36.100Z,18.60
2018-06-18T07:03:39.626Z,18.50
2018-06-18T07:04:43.226Z,18.50
2018-06-18T07:05:46.982Z,18.50
2018-06-18T07:06:50.839Z,18.60
2018-06-18T07:07:54.405Z,18.60
2018-06-18T07:08:57.984Z,18.70
2018-06-18T07:10:01.884Z,18.70
2018-06-18T07:11:05.408Z,18.60
2018-06-18T07:12:09.065Z,18.70
2018-06-18T07:13:13.047Z,18.80
2018-06-18T07:14:16.653Z,18.80
2018-06-18T07:15:20.368Z,18.90
2018-06-18T07:16:23.992Z,18.90
2018-06-18T07:17:27.634Z,19.00
2018-06-18T07:18:31.199Z,19.10
2018-06-18T07:19:35.266Z,19.10
2018-06-18T07:20:38.821Z,19.00
2018-06-18T07:22:45.739Z,19.20
2018-06-18T07:23:49.287Z,19.30
2018-06-18T07:24:52.926Z,19.20
2018-06-18T07:25:56.500Z,19.20
2018-06-18T07:27:00.699Z,19.30
2018-06-18T07:28:04.871Z,19.30
2018-06-18T07:29:08.394Z,19.30
2018-06-18T07:30:12.128Z,19.30
2018-06-18T07:31:15.636Z,19.50
2018-06-18T07:32:19.305Z,19.70
2018-06-18T07:33:23.139Z,19.90
2018-06-18T07:34:27.381Z,20.10
2018-06-18T07:35:30.956Z,20.10
2018-06-18T07:36:34.489Z,20.40
2018-06-18T07:37:38.030Z,20.50
2018-06-18T07:38:41.545Z,20.80
2018-06-18T07:39:45.075Z,20.80
2018-06-18T07:40:48.728Z,20.60
2018-06-18T07:41:52.958Z,20.90
2018-06-18T07:42:56.891Z,20.90
2018-06-18T07:44:01.328Z,21.10
2018-06-18T07:45:04.940Z,21.20
2018-06-18T07:46:08.583Z,21.30
2018-06-18T07:47:12.571Z,21.40
2018-06-18T07:48:16.089Z,21.60
2018-06-18T07:49:19.658Z,21.70
2018-06-18T07:50:23.168Z,21.80
2018-06-18T07:51:26.744Z,21.70
2018-06-18T07:52:30.258Z,21.70
2018-06-18T07:53:34.094Z,21.80
2018-06-18T07:54:37.612Z,21.60
2018-06-18T07:55:41.445Z,21.70
2018-06-18T07:56:45.025Z,21.60
2018-06-18T07:57:48.529Z,21.50
2018-06-18T07:58:52.088Z,21.50
2018-06-18T07:59:55.617Z,21.40
2018-06-18T08:00:59.306Z,21.40
2018-06-18T08:02:04.665Z,21.30
2018-06-18T08:03:08.572Z,21.10
2018-06-18T08:04:12.251Z,20.90
2018-06-18T08:05:15.961Z,21.00
2018-06-18T08:06:19.559Z,20.90
2018-06-18T08:07:23.112Z,21.00
2018-06-18T08:08:26.633Z,21.00
2018-06-18T08:09:30.261Z,20.90
2018-06-18T08:10:33.869Z,20.90
2018-06-18T08:11:37.413Z,21.00
2018-06-18T08:12:40.918Z,20.90
2018-06-18T08:13:44.465Z,20.90
2018-06-18T08:14:48.049Z,21.00
2018-06-18T08:15:51.861Z,21.10
2018-06-18T08:16:56.348Z,21.10
2018-06-18T08:17:59.936Z,21.00
2018-06-18T08:19:04.798Z,21.10
2018-06-18T08:20:08.583Z,20.90
2018-06-18T08:21:12.550Z,21.00
2018-06-18T08:22:16.125Z,21.00
2018-06-18T08:23:19.739Z,21.20
2018-06-18T08:24:23.366Z,21.20
2018-06-18T08:25:26.930Z,21.20
2018-06-18T08:26:30.569Z,21.20
2018-06-18T08:27:34.759Z,21.10
2018-06-18T08:28:38.342Z,21.20
2018-06-18T08:29:41.962Z,21.10
2018-06-18T08:30:45.737Z,21.00
2018-06-18T08:31:49.301Z,20.90
2018-06-18T08:32:53.021Z,20.90
2018-06-18T08:33:57.465Z,21.00
2018-06-18T08:35:01.060Z,20.90
2018-06-18T08:36:05.515Z,20.90
2018-06-18T08:37:09.126Z,21.20
2018-06-18T08:38:13.074Z,21.30
2018-06-18T08:39:16.590Z,21.50
2018-06-18T08:40:20.142Z,21.70
2018-06-18T08:41:24.088Z,21.80
2018-06-18T08:42:28.400Z,22.00
2018-06-18T08:43:32.222Z,22.30
2018-06-18T08:44:35.746Z,22.60
2018-06-18T08:45:39.419Z,23.00
2018-06-18T08:46:43.010Z,23.30
2018-06-18T08:47:46.665Z,23.40
2018-06-18T08:48:55.534Z,23.30
2018-06-18T08:50:05.142Z,23.70
2018-06-18T08:51:13.947Z,24.10
2018-06-18T08:52:22.859Z,24.40
2018-06-18T08:53:31.689Z,24.60
2018-06-18T08:54:40.496Z,24.60
2018-06-18T08:55:49.176Z,24.50
2018-06-18T08:56:57.875Z,24.50
2018-06-18T08:58:06.672Z,24.40
2018-06-18T08:59:15.488Z,24.20
2018-06-18T09:00:24.295Z,24.00
2018-06-18T09:01:33.620Z,23.90
2018-06-18T09:02:37.314Z,23.80
2018-06-18T09:03:46.238Z,23.80
2018-06-18T09:06:02.416Z,23.80
2018-06-18T09:07:11.204Z,24.00
2018-06-18T09:08:20.650Z,24.30
2018-06-18T09:09:24.768Z,24.40
2018-06-18T09:10:28.511Z,24.30
2018-06-18T09:11:32.156Z,24.50
2018-06-18T09:12:36.359Z,24.80
2018-06-18T09:13:40.266Z,25.30
2018-06-18T09:14:43.861Z,25.70
2018-06-18T09:15:47.387Z,25.90
2018-06-18T09:16:50.948Z,25.90
2018-06-18T09:17:55.039Z,26.00
2018-06-18T09:18:58.680Z,26.10
2018-06-18T09:20:03.321Z,25.70
2018-06-18T09:21:07.001Z,25.80
2018-06-18T09:22:10.674Z,25.80
2018-06-18T09:23:14.486Z,25.70
2018-06-18T09:24:18.911Z,25.10
2018-06-18T09:25:22.437Z,24.80
2018-06-18T09:26:26.052Z,24.60
2018-06-18T09:27:29.568Z,24.20
2018-06-18T09:28:33.391Z,24.00
2018-06-18T09:29:37.565Z,23.80
2018-06-18T09:30:41.068Z,23.70
2018-06-18T09:31:48.771Z,23.30
2018-06-18T09:32:52.329Z,22.90
2018-06-18T09:33:56.348Z,22.80
2018-06-18T09:34:59.940Z,22.80
2018-06-18T09:36:03.479Z,22.90
2018-06-18T09:37:07.282Z,23.00
2018-06-18T09:38:11.610Z,23.20
2018-06-18T09:39:15.825Z,23.50
2018-06-18T09:40:19.998Z,23.80
2018-06-18T09:41:23.527Z,24.10
2018-06-18T09:42:27.300Z,24.60
2018-06-18T09:43:31.070Z,24.80
2018-06-18T09:44:34.732Z,25.10
2018-06-18T09:45:38.301Z,25.00
2018-06-18T09:46:41.842Z,25.20
2018-06-18T09:47:45.357Z,25.10
2018-06-18T09:48:54.127Z,25.00
2018-06-18T09:50:03.135Z,24.80
2018-06-18T09:51:12.134Z,24.70
2018-06-18T09:52:20.832Z,24.50
2018-06-18T09:53:29.600Z,24.40
2018-06-18T09:54:38.563Z,24.30
2018-06-18T09:55:47.389Z,23.90
2018-06-18T09:56:56.371Z,23.70
2018-06-18T09:58:05.511Z,23.70
2018-06-18T09:59:14.232Z,23.60
2018-06-18T10:00:34.480Z,23.70
2018-06-18T10:01:38.408Z,23.80
2018-06-18T10:02:42.056Z,23.90
2018-06-18T10:03:45.721Z,24.10
2018-06-18T10:04:49.771Z,24.40
2018-06-18T10:05:53.877Z,24.50
2018-06-18T10:06:57.519Z,24.40
2018-06-18T10:08:01.026Z,24.30
2018-06-18T10:09:07.545Z,24.60
2018-06-18T10:10:12.645Z,24.60
2018-06-18T10:11:16.848Z,24.80
2018-06-18T10:12:20.595Z,24.90
2018-06-18T10:13:24.534Z,25.10
2018-06-18T10:14:29.596Z,24.70
2018-06-18T10:15:33.363Z,24.40
2018-06-18T10:16:37.223Z,24.10
2018-06-18T10:17:40.980Z,24.10
2018-06-18T10:18:45.427Z,24.00
2018-06-18T10:19:50.844Z,23.80
2018-06-18T10:30:39.752Z,23.90
2018-06-18T10:31:43.544Z,23.50
2018-06-18T10:32:52.607Z,23.60
2018-06-18T10:34:02.060Z,23.60
2018-06-18T10:35:11.057Z,23.60
2018-06-18T10:36:20.218Z,23.60
2018-06-18T10:37:29.038Z,23.70
2018-06-18T10:38:38.410Z,23.60
2018-06-18T10:39:47.967Z,23.80
2018-06-18T10:40:56.888Z,24.00
2018-06-18T10:42:06.064Z,24.20
2018-06-18T10:43:14.938Z,24.50
2018-06-18T10:44:19.260Z,24.60
2018-06-18T10:45:23.770Z,24.50
2018-06-18T10:46:27.614Z,24.70
2018-06-18T10:47:31.415Z,25.00
2018-06-18T10:48:35.280Z,25.20
2018-06-18T10:49:39.068Z,25.30
2018-06-18T10:50:42.959Z,25.20
2018-06-18T10:51:46.801Z,25.40
2018-06-18T10:52:50.510Z,25.30
2018-06-18T10:53:54.444Z,25.50
2018-06-18T10:54:58.358Z,25.60
2018-06-18T10:56:02.176Z,25.70
2018-06-18T10:57:05.970Z,25.90
2018-06-18T10:58:09.908Z,25.90
2018-06-18T10:59:14.646Z,25.80
2018-06-18T11:00:22.415Z,25.90
2018-06-18T11:01:29.873Z,25.70
2018-06-18T11:02:33.768Z,25.60
2018-06-18T11:03:37.643Z,25.50
2018-06-18T11:04:45.829Z,25.30
2018-06-18T11:05:55.210Z,25.00
2018-06-18T11:06:59.211Z,24.80
2018-06-18T11:08:02.870Z,24.70
2018-06-18T11:09:09.086Z,24.60
2018-06-18T11:10:13.289Z,24.40
2018-06-18T11:11:17.229Z,24.30
2018-06-18T11:13:24.621Z,24.00
2018-06-18T11:14:28.867Z,24.00
2018-06-18T11:15:32.700Z,24.00
2018-06-18T11:16:36.624Z,23.80
2018-06-18T11:17:45.518Z,24.00
2018-06-18T11:18:54.598Z,24.10
2018-06-18T11:20:03.672Z,24.10
2018-06-18T11:21:12.975Z,24.40
2018-06-18T11:22:16.886Z,24.60
2018-06-18T11:23:25.872Z,24.70
2018-06-18T11:24:34.906Z,24.90
2018-06-18T11:25:52.619Z,25.30
2018-06-18T11:28:17.377Z,25.90
2018-06-18T11:29:21.966Z,26.10
2018-06-18T11:30:25.616Z,26.30
2018-06-18T11:31:29.307Z,26.30
2018-06-18T11:32:32.939Z,26.50
2018-06-18T11:33:36.523Z,26.60
2018-06-18T11:34:40.139Z,26.60
2018-06-18T11:35:43.773Z,26.60
2018-06-18T11:36:47.378Z,26.80
2018-06-18T11:37:51.043Z,26.90
2018-06-18T11:38:54.556Z,27.00
2018-06-18T11:39:58.416Z,27.00
2018-06-18T11:41:02.061Z,26.90
2018-06-18T11:42:05.683Z,26.90
2018-06-18T11:43:09.229Z,26.80
2018-06-18T11:44:14.026Z,26.60
2018-06-18T11:45:17.622Z,26.50
2018-06-18T11:46:21.507Z,26.60
2018-06-18T11:47:25.120Z,26.50
2018-06-18T11:48:28.721Z,26.60
2018-06-18T11:49:32.322Z,26.60
2018-06-18T11:50:36.162Z,26.60
2018-06-18T11:51:39.843Z,26.50
2018-06-18T11:52:43.817Z,26.50
2018-06-18T11:53:47.393Z,26.40
2018-06-18T11:54:50.937Z,26.40
2018-06-18T11:55:54.640Z,26.20
2018-06-18T11:56:58.243Z,26.30
2018-06-18T11:58:01.937Z,26.40
2018-06-18T11:59:11.059Z,26.50
2018-06-18T12:00:19.940Z,26.40
2018-06-18T12:01:29.031Z,26.20
2018-06-18T12:02:38.080Z,26.20
2018-06-18T12:03:46.986Z,26.20
2018-06-18T12:04:55.644Z,26.10
2018-06-18T12:06:04.816Z,26.00
2018-06-18T12:07:13.509Z,25.80
2018-06-18T12:08:22.502Z,25.70
2018-06-18T12:09:27.310Z,25.50
2018-06-18T12:10:30.860Z,25.20
2018-06-18T12:11:34.462Z,25.10
2018-06-18T12:12:38.342Z,25.10
2018-06-18T12:13:41.884Z,25.00
2018-06-18T12:14:45.538Z,25.00
2018-06-18T12:15:49.116Z,24.90
2018-06-18T12:16:52.666Z,24.90
2018-06-18T12:17:56.882Z,24.80
2018-06-18T12:19:00.400Z,24.80
2018-06-18T12:20:04.298Z,24.80
2018-06-18T12:21:07.977Z,24.70
2018-06-18T12:22:12.722Z,24.60
2018-06-18T12:23:16.320Z,24.50
2018-06-18T12:24:20.026Z,24.50
2018-06-18T12:25:23.785Z,24.50
2018-06-18T12:26:27.541Z,24.40
2018-06-18T12:27:33.494Z,24.60
2018-06-18T12:28:37.144Z,24.70
2018-06-18T12:29:40.692Z,25.00
2018-06-18T12:30:44.519Z,25.10
2018-06-18T12:31:48.067Z,25.30
2018-06-18T12:32:51.734Z,25.30
2018-06-18T12:33:55.374Z,25.40
2018-06-18T12:34:59.526Z,25.50
2018-06-18T12:36:03.343Z,25.50
2018-06-18T12:37:08.849Z,25.60
2018-06-18T12:38:13.231Z,25.80
2018-06-18T12:39:16.890Z,25.90
2018-06-18T12:40:20.469Z,26.00
2018-06-18T12:41:24.174Z,26.10
2018-06-18T12:42:27.830Z,26.20
2018-06-18T12:43:34.915Z,26.00
2018-06-18T12:44:45.038Z,26.00
2018-06-18T12:45:56.673Z,26.00
2018-06-18T12:47:05.461Z,25.90
2018-06-18T12:48:14.230Z,25.70
2018-06-18T12:49:23.206Z,25.40
2018-06-18T12:50:32.149Z,25.20
2018-06-18T12:51:41.090Z,25.00
2018-06-18T12:52:50.038Z,24.80
2018-06-18T12:53:58.854Z,24.60
2018-06-18T12:55:07.773Z,24.40
2018-06-18T12:56:16.563Z,24.20
2018-06-18T12:57:20.371Z,24.10
2018-06-18T12:58:23.998Z,23.90
2018-06-18T12:59:27.798Z,23.80
2018-06-18T13:00:31.589Z,23.70
2018-06-18T13:01:37.413Z,23.70
2018-06-18T13:02:45.045Z,23.60
2018-06-18T13:03:48.757Z,23.60
2018-06-18T13:04:56.051Z,23.50
2018-06-18T13:05:59.870Z,23.50
2018-06-18T13:07:03.923Z,23.30
2018-06-18T13:08:07.891Z,23.10
2018-06-18T13:09:11.744Z,23.00
2018-06-18T13:10:16.753Z,23.00
2018-06-18T13:11:20.673Z,22.90
2018-06-18T13:12:24.329Z,22.90
2018-06-18T13:13:28.074Z,22.80
2018-06-18T13:14:31.771Z,22.90
2018-06-18T13:15:36.091Z,22.90
2018-06-18T13:16:39.654Z,22.60
2018-06-18T13:17:43.394Z,22.70
2018-06-18T13:18:47.428Z,22.80
2018-06-18T13:19:51.250Z,22.80
2018-06-18T13:20:54.970Z,22.80
2018-06-18T13:21:58.745Z,22.90
2018-06-18T13:23:02.456Z,23.10
2018-06-18T13:24:06.180Z,22.90
2018-06-18T13:25:10.057Z,22.90
2018-06-18T13:26:14.794Z,23.00
2018-06-18T13:27:18.361Z,23.00
2018-06-18T13:28:22.002Z,23.10
2018-06-18T13:29:25.621Z,23.20
2018-06-18T13:30:29.432Z,23.30
2018-06-18T13:31:33.471Z,23.30
2018-06-18T13:42:27.587Z,23.00
2018-06-18T13:43:36.564Z,23.50
2018-06-18T13:44:45.247Z,23.50
2018-06-18T13:45:54.093Z,23.30
2018-06-18T13:47:02.873Z,23.30
2018-06-18T13:48:12.040Z,23.40
2018-06-18T13:49:15.741Z,23.10
2018-06-18T13:51:24.657Z,22.90
2018-06-18T13:52:28.371Z,23.00
2018-06-18T13:53:32.238Z,23.10
2018-06-18T13:54:35.845Z,22.90
2018-06-18T13:55:39.624Z,22.80
2018-06-18T13:56:44.387Z,22.50
2018-06-18T13:57:49.034Z,22.30
2018-06-18T13:58:53.710Z,22.20
2018-06-18T13:59:57.437Z,22.10
2018-06-18T14:01:01.641Z,21.90
2018-06-18T14:02:05.256Z,22.00
2018-06-18T14:03:08.817Z,22.00
2018-06-18T14:04:13.189Z,21.90
2018-06-18T14:05:17.757Z,21.90
2018-06-18T14:17:25.716Z,22.10
2018-06-18T14:18:29.567Z,22.20
2018-06-18T14:19:38.627Z,22.20
2018-06-18T14:20:42.785Z,22.20
2018-06-18T14:21:46.328Z,22.10
2018-06-18T14:22:49.915Z,21.90
2018-06-18T14:23:53.698Z,21.80
2018-06-18T14:24:57.392Z,21.70
2018-06-18T14:26:01.096Z,21.80
2018-06-18T14:27:05.275Z,21.60
2018-06-18T14:28:08.930Z,21.40
2018-06-18T14:29:17.977Z,21.20
2018-06-18T14:30:26.924Z,21.20
2018-06-18T14:31:35.943Z,21.20
2018-06-18T14:32:44.810Z,21.20
2018-06-18T14:33:53.595Z,21.30
2018-06-18T14:35:03.143Z,21.40
2018-06-18T14:36:12.857Z,21.40
2018-06-18T14:38:24.054Z,21.50
2018-06-18T14:39:33.020Z,21.60
2018-06-18T14:40:37.474Z,22.00
2018-06-18T14:41:40.988Z,22.10
2018-06-18T14:42:44.757Z,22.20
2018-06-18T14:43:48.275Z,22.30
2018-06-18T14:44:51.788Z,22.30
2018-06-18T14:45:55.314Z,22.40
2018-06-18T14:46:58.914Z,22.20
2018-06-18T14:48:02.434Z,22.20
2018-06-18T14:49:07.024Z,22.10
2018-06-18T14:50:10.661Z,22.10
2018-06-18T14:51:14.323Z,22.10
2018-06-18T14:52:18.279Z,22.00
2018-06-18T14:53:22.134Z,21.90
2018-06-18T14:54:27.063Z,21.80
2018-06-18T14:55:30.504Z,21.60